In Rescue
 
Open Full Screen Window  High Contrast Mode
July 25, 2021 8:52 AM EDT
Weather Information
Wind Direction
  ---
Wind Speed
  00 kt (0 mph)
Wind Gust
  00 kt (0 mph)
Altimeter
29.92 in
Visibility
10 SM
Temperature
19° C
66° F
Dewpoint
19° C
66° F
Humidity
100%
1hr Rain Fall
00.00 in.
24hr Rain Fall
00.45 in.
Sky Condition
Clear
VFR

METAR KRQB 251252Z AUTO 00000KT 10SM CLR 19/19 A2992 RMK AO2 T01900188

FAA Disclaimer: The data displayed is for advisory purposes only and is not to be used for flight planning or operations.